EWG12L EDDL-LEPA
Flight info
| Callsign | EWG12L |
|---|---|
| Flight time | 2h 9m |
| Altitude | 24000 |
| Route | MODRU2T/23L MODRU Z283 LNO/N0451F350 Z283 SOPOK DCT ROUSY DCT GTQ DCT POGOL DCT LASAT DCT MOROK DCT GILIR DCT GEVEA DCT INCUS DCT BALSI DCT RETNO DCT TUPOX DCT MTG DCT DIVKO DCT VATIR DCT PIVUS DCT BODEQ DCT VERSO DCT LUNIK |
| Aircraft | A320/M-SDE3FGHIRWY/LB1 |
Departure
| Time | 2026-05-04 12:20 |
|---|---|
| Airport | Düsseldorf Airport (EDDL) |
Arrival
| Time | 2026-05-04 14:30 |
|---|---|
| Airport | Palma de Mallorca Airport (LEPA) |
| Time | Latitude | Longitude | Altitude | Speed | Heading |
|---|---|---|---|---|---|
| 2026-05-04 11:01 | 51.28156 | 6.76722 | 129 ft | 0 kts | 275° |
| 2026-05-04 12:11 | 51.28156 | 6.76731 | 128 ft | 4 kts | 274° |
| 2026-05-04 12:12 | 51.28155 | 6.76774 | 126 ft | 4 kts | 276° |
| 2026-05-04 12:12 | 51.28148 | 6.76808 | 124 ft | 4 kts | 312° |
| 2026-05-04 12:12 | 51.28128 | 6.76826 | 126 ft | 4 kts | 15° |
| 2026-05-04 12:12 | 51.28105 | 6.76813 | 127 ft | 1 kts | 17° |
| 2026-05-04 12:13 | 51.28105 | 6.76812 | 127 ft | 0 kts | 17° |
| 2026-05-04 12:15 | 51.28151 | 6.76831 | 126 ft | 9 kts | 8° |
| 2026-05-04 12:15 | 51.28210 | 6.76842 | 129 ft | 8 kts | 6° |
| 2026-05-04 12:16 | 51.28259 | 6.76851 | 129 ft | 7 kts | 6° |
| 2026-05-04 12:16 | 51.28333 | 6.76865 | 128 ft | 12 kts | 7° |
| 2026-05-04 12:16 | 51.28402 | 6.76826 | 125 ft | 11 kts | 297° |
| 2026-05-04 12:16 | 51.28460 | 6.76772 | 125 ft | 9 kts | 358° |
| 2026-05-04 12:17 | 51.28521 | 6.76837 | 127 ft | 16 kts | 53° |
| 2026-05-04 12:17 | 51.28604 | 6.77018 | 126 ft | 21 kts | 55° |
| 2026-05-04 12:17 | 51.28687 | 6.77198 | 128 ft | 19 kts | 53° |
| 2026-05-04 12:17 | 51.28770 | 6.77373 | 129 ft | 21 kts | 52° |
| 2026-05-04 12:18 | 51.28853 | 6.77544 | 126 ft | 18 kts | 53° |
| 2026-05-04 12:18 | 51.28930 | 6.77705 | 124 ft | 20 kts | 53° |
| 2026-05-04 12:18 | 51.29037 | 6.77930 | 127 ft | 31 kts | 52° |
| 2026-05-04 12:18 | 51.29165 | 6.78197 | 136 ft | 29 kts | 53° |
| 2026-05-04 12:19 | 51.29280 | 6.78440 | 146 ft | 26 kts | 53° |
| 2026-05-04 12:19 | 51.29409 | 6.78572 | 152 ft | 22 kts | 354° |
| 2026-05-04 12:19 | 51.29546 | 6.78543 | 152 ft | 14 kts | 326° |
| 2026-05-04 12:19 | 51.29543 | 6.78508 | 152 ft | 4 kts | 233° |
| 2026-05-04 12:20 | 51.29433 | 6.78277 | 145 ft | 62 kts | 233° |
| 2026-05-04 12:20 | 51.29033 | 6.77437 | 125 ft | 127 kts | 232° |
| 2026-05-04 12:20 | 51.28391 | 6.76112 | 214 ft | 167 kts | 231° |
| 2026-05-04 12:20 | 51.27678 | 6.74701 | 955 ft | 159 kts | 232° |
| 2026-05-04 12:21 | 51.27011 | 6.73271 | 1563 ft | 165 kts | 233° |
| 2026-05-04 12:21 | 51.26288 | 6.71690 | 1893 ft | 188 kts | 233° |
| 2026-05-04 12:21 | 51.25473 | 6.69912 | 2241 ft | 207 kts | 233° |
| 2026-05-04 12:21 | 51.24605 | 6.68025 | 2840 ft | 215 kts | 233° |
| 2026-05-04 12:22 | 51.23747 | 6.66084 | 3609 ft | 216 kts | 240° |
| 2026-05-04 12:22 | 51.23500 | 6.63737 | 4284 ft | 223 kts | 281° |
| 2026-05-04 12:22 | 51.24265 | 6.61470 | 4681 ft | 247 kts | 310° |
| 2026-05-04 12:22 | 51.25587 | 6.59516 | 5130 ft | 269 kts | 320° |
| 2026-05-04 12:23 | 51.27100 | 6.57704 | 5928 ft | 275 kts | 323° |
| 2026-05-04 12:23 | 51.28662 | 6.55915 | 6789 ft | 278 kts | 323° |
| 2026-05-04 12:23 | 51.30237 | 6.54080 | 7644 ft | 281 kts | 322° |
| 2026-05-04 12:23 | 51.31809 | 6.52198 | 8499 ft | 283 kts | 321° |
| 2026-05-04 12:24 | 51.33380 | 6.50263 | 9355 ft | 286 kts | 320° |
| 2026-05-04 12:24 | 51.34950 | 6.48285 | 10191 ft | 289 kts | 320° |
| 2026-05-04 12:24 | 51.36530 | 6.46265 | 10927 ft | 292 kts | 319° |
| 2026-05-04 12:24 | 51.38077 | 6.44134 | 11668 ft | 295 kts | 309° |
| 2026-05-04 12:25 | 51.39128 | 6.41344 | 12394 ft | 295 kts | 287° |
| 2026-05-04 12:25 | 51.39413 | 6.38121 | 13157 ft | 295 kts | 264° |
| 2026-05-04 12:25 | 51.38882 | 6.34954 | 13901 ft | 297 kts | 242° |
| 2026-05-04 12:25 | 51.37608 | 6.32365 | 14545 ft | 300 kts | 219° |
| 2026-05-04 12:26 | 51.35894 | 6.30444 | 15217 ft | 302 kts | 214° |
| 2026-05-04 12:26 | 51.34142 | 6.28561 | 15897 ft | 305 kts | 214° |
| 2026-05-04 12:26 | 51.32309 | 6.26849 | 16543 ft | 309 kts | 204° |
| 2026-05-04 12:26 | 51.30230 | 6.25566 | 16678 ft | 330 kts | 200° |
| 2026-05-04 12:27 | 51.28013 | 6.24272 | 16817 ft | 349 kts | 200° |
| 2026-05-04 12:27 | 51.25675 | 6.22916 | 16948 ft | 366 kts | 200° |
| 2026-05-04 12:27 | 51.23242 | 6.21508 | 17282 ft | 376 kts | 200° |
| 2026-05-04 12:27 | 51.20766 | 6.20074 | 17826 ft | 380 kts | 200° |
| 2026-05-04 12:28 | 51.18268 | 6.18625 | 18406 ft | 383 kts | 200° |
| 2026-05-04 12:28 | 51.15761 | 6.17166 | 18945 ft | 385 kts | 200° |
| 2026-05-04 12:28 | 51.13243 | 6.15697 | 19484 ft | 386 kts | 200° |
| 2026-05-04 12:28 | 51.10716 | 6.14222 | 20038 ft | 388 kts | 200° |
| 2026-05-04 12:29 | 51.08173 | 6.12744 | 20564 ft | 389 kts | 200° |
| 2026-05-04 12:29 | 51.05623 | 6.11262 | 21085 ft | 391 kts | 200° |
| 2026-05-04 12:29 | 51.03065 | 6.09769 | 21576 ft | 392 kts | 201° |
| 2026-05-04 12:29 | 51.00609 | 6.07880 | 22040 ft | 394 kts | 211° |
| 2026-05-04 12:30 | 50.98289 | 6.05571 | 22524 ft | 395 kts | 212° |
| 2026-05-04 12:30 | 50.95948 | 6.03253 | 22989 ft | 397 kts | 212° |
| 2026-05-04 12:30 | 50.93592 | 6.00956 | 23436 ft | 398 kts | 210° |
| 2026-05-04 12:30 | 50.91181 | 5.98772 | 23839 ft | 400 kts | 208° |
| 2026-05-04 12:31 | 50.88724 | 5.96677 | 23972 ft | 401 kts | 207° |
| 2026-05-04 12:31 | 50.86220 | 5.94614 | 23997 ft | 410 kts | 207° |
| 2026-05-04 12:31 | 50.83683 | 5.92536 | 23999 ft | 412 kts | 207° |
| 2026-05-04 12:31 | 50.81137 | 5.90429 | 23999 ft | 413 kts | 208° |
| 2026-05-04 12:32 | 50.78605 | 5.88288 | 23999 ft | 415 kts | 208° |
| 2026-05-04 12:32 | 50.73454 | 5.83842 | 24233 ft | 427 kts | 208° |
| 2026-05-04 12:32 | 50.70835 | 5.81570 | 24355 ft | 432 kts | 208° |
| 2026-05-04 12:33 | 50.68187 | 5.79279 | 24509 ft | 434 kts | 208° |
| 2026-05-04 12:33 | 50.65538 | 5.76995 | 24813 ft | 433 kts | 208° |
| 2026-05-04 12:33 | 50.62902 | 5.74730 | 25279 ft | 429 kts | 208° |
| 2026-05-04 12:33 | 50.60183 | 5.72894 | 25762 ft | 424 kts | 198° |
| 2026-05-04 12:34 | 50.57306 | 5.71938 | 26261 ft | 422 kts | 187° |
| 2026-05-04 12:34 | 50.54383 | 5.71859 | 26765 ft | 420 kts | 178° |
| 2026-05-04 12:34 | 50.51486 | 5.72398 | 27283 ft | 417 kts | 175° |
| 2026-05-04 12:34 | 50.48619 | 5.72953 | 27805 ft | 413 kts | 175° |
| 2026-05-04 12:35 | 50.45773 | 5.73500 | 28338 ft | 410 kts | 176° |
| 2026-05-04 12:35 | 50.42959 | 5.74035 | 28890 ft | 406 kts | 176° |
| 2026-05-04 12:35 | 50.40171 | 5.74561 | 29446 ft | 402 kts | 176° |
| 2026-05-04 12:35 | 50.37406 | 5.75080 | 29908 ft | 401 kts | 176° |
| 2026-05-04 12:36 | 50.34655 | 5.75597 | 30122 ft | 404 kts | 176° |
| 2026-05-04 12:36 | 50.32774 | 5.75955 | 30406 ft | 402 kts | 176° |
| 2026-05-04 12:36 | 50.30004 | 5.76484 | 30821 ft | 399 kts | 176° |
| 2026-05-04 12:36 | 50.27255 | 5.77010 | 31241 ft | 397 kts | 176° |
| 2026-05-04 12:37 | 50.24543 | 5.77724 | 31676 ft | 397 kts | 169° |
| 2026-05-04 12:37 | 50.21888 | 5.78897 | 32114 ft | 395 kts | 168° |
| 2026-05-04 12:37 | 50.19258 | 5.80080 | 32557 ft | 392 kts | 168° |
| 2026-05-04 12:37 | 50.16646 | 5.81247 | 33012 ft | 389 kts | 168° |
| 2026-05-04 12:38 | 50.13214 | 5.82771 | 33623 ft | 385 kts | 169° |
| 2026-05-04 12:38 | 50.11475 | 5.83542 | 33942 ft | 383 kts | 169° |
| 2026-05-04 12:38 | 50.08932 | 5.84669 | 34342 ft | 378 kts | 169° |
| 2026-05-04 12:38 | 50.06417 | 5.85785 | 34762 ft | 373 kts | 169° |
| 2026-05-04 12:39 | 50.03934 | 5.86887 | 35174 ft | 369 kts | 169° |
| 2026-05-04 12:39 | 50.01478 | 5.87971 | 35532 ft | 366 kts | 170° |
| 2026-05-04 12:39 | 49.98984 | 5.88569 | 35692 ft | 362 kts | 179° |
| 2026-05-04 12:39 | 49.96498 | 5.88885 | 35828 ft | 364 kts | 179° |
| 2026-05-04 12:40 | 49.93936 | 5.89212 | 35973 ft | 366 kts | 179° |
| 2026-05-04 12:40 | 49.88823 | 5.89861 | 36009 ft | 377 kts | 179° |
| 2026-05-04 12:41 | 49.83487 | 5.90546 | 36013 ft | 388 kts | 179° |
| 2026-05-04 12:41 | 49.78020 | 5.91243 | 36015 ft | 399 kts | 179° |
| 2026-05-04 12:42 | 49.72451 | 5.91952 | 36017 ft | 409 kts | 179° |
| 2026-05-04 12:42 | 49.66756 | 5.92677 | 36022 ft | 412 kts | 179° |
| 2026-05-04 12:43 | 49.61042 | 5.93397 | 36021 ft | 412 kts | 179° |
| 2026-05-04 12:43 | 49.55331 | 5.94110 | 36020 ft | 412 kts | 179° |
| 2026-05-04 12:44 | 49.49615 | 5.94825 | 36017 ft | 412 kts | 179° |
| 2026-05-04 12:44 | 49.43895 | 5.95550 | 36013 ft | 412 kts | 179° |
| 2026-05-04 12:45 | 49.38188 | 5.96255 | 36009 ft | 412 kts | 179° |
| 2026-05-04 12:45 | 49.32472 | 5.96965 | 36003 ft | 412 kts | 178° |
| 2026-05-04 12:46 | 49.26763 | 5.97679 | 36005 ft | 412 kts | 178° |
| 2026-05-04 12:46 | 49.21055 | 5.98397 | 36010 ft | 412 kts | 178° |
| 2026-05-04 12:47 | 49.15342 | 5.99105 | 36013 ft | 412 kts | 178° |
| 2026-05-04 12:47 | 49.09626 | 5.99807 | 36018 ft | 412 kts | 179° |
| 2026-05-04 12:48 | 49.03915 | 6.00508 | 36014 ft | 412 kts | 178° |
| 2026-05-04 12:48 | 48.98196 | 6.01223 | 36023 ft | 412 kts | 178° |
| 2026-05-04 12:49 | 48.92486 | 6.01929 | 36019 ft | 412 kts | 178° |
| 2026-05-04 12:49 | 48.86763 | 6.02630 | 36021 ft | 412 kts | 178° |
| 2026-05-04 12:50 | 48.81046 | 6.03325 | 36019 ft | 412 kts | 178° |
| 2026-05-04 12:50 | 48.75335 | 6.04012 | 36023 ft | 412 kts | 178° |
| 2026-05-04 12:51 | 48.69613 | 6.04708 | 36028 ft | 412 kts | 178° |
| 2026-05-04 12:51 | 48.63889 | 6.05400 | 36024 ft | 413 kts | 178° |
| 2026-05-04 12:52 | 48.58170 | 6.06088 | 36020 ft | 413 kts | 178° |
| 2026-05-04 12:52 | 48.52444 | 6.06776 | 36026 ft | 413 kts | 178° |
| 2026-05-04 12:53 | 48.46763 | 6.07465 | 36026 ft | 413 kts | 178° |
| 2026-05-04 12:53 | 48.41042 | 6.08149 | 36026 ft | 412 kts | 178° |
| 2026-05-04 12:54 | 48.35316 | 6.08833 | 36028 ft | 412 kts | 178° |
| 2026-05-04 12:54 | 48.29592 | 6.09515 | 36030 ft | 412 kts | 178° |
| 2026-05-04 12:55 | 48.23881 | 6.10203 | 36028 ft | 412 kts | 178° |
| 2026-05-04 12:55 | 48.18169 | 6.10894 | 36027 ft | 412 kts | 178° |
| 2026-05-04 12:56 | 48.12459 | 6.11576 | 36025 ft | 412 kts | 178° |
| 2026-05-04 12:56 | 48.06748 | 6.12255 | 36025 ft | 412 kts | 178° |
| 2026-05-04 12:57 | 48.01031 | 6.12931 | 36023 ft | 412 kts | 179° |
| 2026-05-04 12:57 | 47.95326 | 6.13599 | 36027 ft | 411 kts | 179° |
| 2026-05-04 12:58 | 47.89622 | 6.14268 | 36026 ft | 411 kts | 179° |
| 2026-05-04 12:58 | 47.83915 | 6.14934 | 36027 ft | 411 kts | 179° |
| 2026-05-04 12:59 | 47.78210 | 6.15601 | 36026 ft | 411 kts | 179° |
| 2026-05-04 12:59 | 47.72500 | 6.16267 | 36027 ft | 412 kts | 179° |
| 2026-05-04 13:00 | 47.66788 | 6.16936 | 36027 ft | 411 kts | 178° |
| 2026-05-04 13:00 | 47.61088 | 6.17609 | 36024 ft | 411 kts | 178° |
| 2026-05-04 13:01 | 47.55379 | 6.18278 | 36028 ft | 411 kts | 178° |
| 2026-05-04 13:01 | 47.49683 | 6.18937 | 36021 ft | 411 kts | 179° |
| 2026-05-04 13:02 | 47.43973 | 6.19591 | 36022 ft | 411 kts | 179° |
| 2026-05-04 13:02 | 47.38269 | 6.20244 | 36020 ft | 411 kts | 178° |
| 2026-05-04 13:03 | 47.32555 | 6.20903 | 36015 ft | 412 kts | 178° |
| 2026-05-04 13:03 | 47.26845 | 6.21572 | 36018 ft | 412 kts | 178° |
| 2026-05-04 13:04 | 47.21131 | 6.22227 | 36020 ft | 412 kts | 179° |
| 2026-05-04 13:04 | 47.15454 | 6.22871 | 36014 ft | 412 kts | 179° |
| 2026-05-04 13:05 | 47.09709 | 6.23520 | 36015 ft | 412 kts | 179° |
| 2026-05-04 13:05 | 47.04011 | 6.23604 | 36016 ft | 408 kts | 188° |
| 2026-05-04 13:06 | 46.98349 | 6.22841 | 36017 ft | 408 kts | 187° |
| 2026-05-04 13:06 | 46.92728 | 6.22096 | 36021 ft | 408 kts | 188° |
| 2026-05-04 13:07 | 46.87066 | 6.21342 | 36024 ft | 408 kts | 188° |
| 2026-05-04 13:07 | 46.81403 | 6.20588 | 36027 ft | 408 kts | 188° |
| 2026-05-04 13:08 | 46.75749 | 6.19837 | 36028 ft | 409 kts | 188° |
| 2026-05-04 13:08 | 46.70076 | 6.19089 | 36033 ft | 409 kts | 188° |
| 2026-05-04 13:09 | 46.64420 | 6.18335 | 36036 ft | 408 kts | 188° |
| 2026-05-04 13:09 | 46.58760 | 6.17582 | 36044 ft | 408 kts | 188° |
| 2026-05-04 13:10 | 46.53101 | 6.16842 | 36054 ft | 408 kts | 188° |
| 2026-05-04 13:10 | 46.47445 | 6.16099 | 36061 ft | 408 kts | 188° |
| 2026-05-04 13:11 | 46.41780 | 6.15358 | 36073 ft | 408 kts | 188° |
| 2026-05-04 13:11 | 46.36118 | 6.14612 | 36079 ft | 408 kts | 188° |
| 2026-05-04 13:12 | 46.30464 | 6.13869 | 36083 ft | 408 kts | 188° |
| 2026-05-04 13:12 | 46.24799 | 6.13129 | 36082 ft | 408 kts | 189° |
| 2026-05-04 13:13 | 46.19184 | 6.12017 | 36082 ft | 407 kts | 192° |
| 2026-05-04 13:13 | 46.13604 | 6.10661 | 36084 ft | 407 kts | 192° |
| 2026-05-04 13:14 | 46.08019 | 6.09326 | 36076 ft | 407 kts | 192° |
| 2026-05-04 13:14 | 46.02419 | 6.08083 | 36081 ft | 407 kts | 191° |
| 2026-05-04 13:15 | 45.96818 | 6.06878 | 36085 ft | 407 kts | 191° |
| 2026-05-04 13:15 | 45.91210 | 6.05657 | 36083 ft | 407 kts | 192° |
| 2026-05-04 13:16 | 45.85607 | 6.04411 | 36083 ft | 407 kts | 192° |
| 2026-05-04 13:16 | 45.80005 | 6.03169 | 36077 ft | 407 kts | 192° |
| 2026-05-04 13:17 | 45.74449 | 6.01937 | 36079 ft | 407 kts | 192° |
| 2026-05-04 13:17 | 45.68837 | 6.00702 | 36083 ft | 408 kts | 192° |
| 2026-05-04 13:18 | 45.63232 | 5.99477 | 36085 ft | 407 kts | 192° |
| 2026-05-04 13:18 | 45.57624 | 5.98251 | 36079 ft | 408 kts | 192° |
| 2026-05-04 13:19 | 45.52016 | 5.97021 | 36079 ft | 408 kts | 192° |
| 2026-05-04 13:19 | 45.46420 | 5.95766 | 36065 ft | 406 kts | 194° |
| 2026-05-04 13:20 | 45.41783 | 5.94397 | 36080 ft | 406 kts | 196° |
| 2026-05-04 13:20 | 45.35394 | 5.92260 | 36053 ft | 405 kts | 197° |
| 2026-05-04 13:21 | 45.29897 | 5.90474 | 36053 ft | 405 kts | 196° |
| 2026-05-04 13:21 | 45.25278 | 5.89029 | 36041 ft | 406 kts | 196° |
| 2026-05-04 13:22 | 45.19793 | 5.87346 | 36038 ft | 406 kts | 196° |
| 2026-05-04 13:22 | 45.14270 | 5.85645 | 36038 ft | 406 kts | 196° |
| 2026-05-04 13:23 | 45.08750 | 5.83939 | 36039 ft | 406 kts | 196° |
| 2026-05-04 13:23 | 45.03232 | 5.82241 | 36038 ft | 406 kts | 196° |
| 2026-05-04 13:24 | 44.97717 | 5.80545 | 36039 ft | 406 kts | 196° |
| 2026-05-04 13:24 | 44.92200 | 5.78844 | 36034 ft | 406 kts | 197° |
| 2026-05-04 13:25 | 44.83931 | 5.76300 | 36043 ft | 405 kts | 197° |
| 2026-05-04 13:25 | 44.78418 | 5.74615 | 36041 ft | 405 kts | 197° |
| 2026-05-04 13:26 | 44.72906 | 5.72933 | 36038 ft | 405 kts | 197° |
| 2026-05-04 13:26 | 44.67408 | 5.71251 | 36039 ft | 405 kts | 197° |
| 2026-05-04 13:27 | 44.61905 | 5.69574 | 36043 ft | 404 kts | 197° |
| 2026-05-04 13:27 | 44.56408 | 5.67907 | 36040 ft | 404 kts | 197° |
| 2026-05-04 13:28 | 44.50906 | 5.66238 | 36043 ft | 404 kts | 197° |
| 2026-05-04 13:28 | 44.45411 | 5.64579 | 36044 ft | 405 kts | 197° |
| 2026-05-04 13:29 | 44.39900 | 5.62916 | 36042 ft | 404 kts | 197° |
| 2026-05-04 13:29 | 44.34625 | 5.60505 | 36040 ft | 397 kts | 205° |
| 2026-05-04 13:30 | 44.29477 | 5.57676 | 36044 ft | 398 kts | 206° |
| 2026-05-04 13:30 | 44.24331 | 5.54853 | 36040 ft | 397 kts | 206° |
| 2026-05-04 13:31 | 44.19199 | 5.52047 | 36038 ft | 396 kts | 206° |
| 2026-05-04 13:31 | 44.14070 | 5.49247 | 36031 ft | 396 kts | 206° |
| 2026-05-04 13:32 | 44.08943 | 5.46459 | 36034 ft | 395 kts | 206° |
| 2026-05-04 13:32 | 44.03818 | 5.43682 | 36008 ft | 394 kts | 206° |
| 2026-05-04 13:33 | 44.01268 | 5.42301 | 35445 ft | 393 kts | 206° |
| 2026-05-04 13:33 | 43.98723 | 5.40921 | 34735 ft | 394 kts | 205° |
| 2026-05-04 13:33 | 43.96166 | 5.39534 | 34050 ft | 394 kts | 205° |
| 2026-05-04 13:33 | 43.93614 | 5.38149 | 33252 ft | 395 kts | 205° |
| 2026-05-04 13:34 | 43.91049 | 5.36757 | 32398 ft | 397 kts | 205° |
| 2026-05-04 13:34 | 43.88465 | 5.35358 | 31508 ft | 400 kts | 204° |
| 2026-05-04 13:34 | 43.85870 | 5.33956 | 30614 ft | 403 kts | 204° |
| 2026-05-04 13:34 | 43.83244 | 5.32545 | 29633 ft | 406 kts | 204° |
| 2026-05-04 13:35 | 43.80597 | 5.31123 | 28528 ft | 410 kts | 204° |
| 2026-05-04 13:35 | 43.75225 | 5.28234 | 26263 ft | 418 kts | 204° |
| 2026-05-04 13:35 | 43.72500 | 5.26767 | 25120 ft | 424 kts | 204° |
| 2026-05-04 13:36 | 43.69737 | 5.25281 | 24471 ft | 429 kts | 203° |
| 2026-05-04 13:36 | 43.66945 | 5.23779 | 24205 ft | 432 kts | 204° |
| 2026-05-04 13:36 | 43.64133 | 5.22268 | 24025 ft | 435 kts | 204° |
| 2026-05-04 13:36 | 43.61313 | 5.20752 | 24024 ft | 435 kts | 204° |
| 2026-05-04 13:37 | 43.58486 | 5.19236 | 24025 ft | 436 kts | 204° |
| 2026-05-04 13:37 | 43.55662 | 5.17730 | 24030 ft | 436 kts | 204° |
| 2026-05-04 13:37 | 43.52834 | 5.16226 | 24026 ft | 436 kts | 204° |
| 2026-05-04 13:37 | 43.50922 | 5.15207 | 24029 ft | 436 kts | 204° |
| 2026-05-04 13:38 | 43.47174 | 5.13216 | 24028 ft | 436 kts | 204° |
| 2026-05-04 13:38 | 43.44346 | 5.11716 | 24027 ft | 436 kts | 204° |
| 2026-05-04 13:38 | 43.41519 | 5.10219 | 24030 ft | 436 kts | 204° |
| 2026-05-04 13:38 | 43.38732 | 5.08591 | 24027 ft | 434 kts | 210° |
| 2026-05-04 13:39 | 43.36189 | 5.06392 | 24030 ft | 432 kts | 216° |
| 2026-05-04 13:39 | 43.33727 | 5.04062 | 23614 ft | 427 kts | 216° |
| 2026-05-04 13:39 | 43.31276 | 5.01743 | 22197 ft | 431 kts | 216° |
| 2026-05-04 13:39 | 43.28796 | 4.99398 | 20745 ft | 436 kts | 215° |
| 2026-05-04 13:40 | 43.26283 | 4.97032 | 19661 ft | 437 kts | 215° |
| 2026-05-04 13:40 | 43.23797 | 4.94697 | 19158 ft | 425 kts | 214° |
| 2026-05-04 13:40 | 43.21392 | 4.92442 | 18656 ft | 415 kts | 214° |
| 2026-05-04 13:40 | 43.19020 | 4.90220 | 18147 ft | 411 kts | 214° |
| 2026-05-04 13:41 | 43.16657 | 4.88007 | 17955 ft | 411 kts | 214° |
| 2026-05-04 13:41 | 43.14301 | 4.85801 | 18001 ft | 412 kts | 214° |
| 2026-05-04 13:41 | 43.11926 | 4.83579 | 17982 ft | 412 kts | 214° |
| 2026-05-04 13:42 | 43.07188 | 4.79164 | 17983 ft | 413 kts | 214° |
| 2026-05-04 13:42 | 43.04773 | 4.77051 | 17987 ft | 413 kts | 209° |
| 2026-05-04 13:42 | 43.02259 | 4.75149 | 17975 ft | 413 kts | 209° |
| 2026-05-04 13:42 | 42.99745 | 4.73241 | 17980 ft | 414 kts | 210° |
| 2026-05-04 13:43 | 42.97229 | 4.71331 | 17983 ft | 414 kts | 210° |
| 2026-05-04 13:43 | 42.94707 | 4.69417 | 17981 ft | 414 kts | 210° |
| 2026-05-04 13:43 | 42.92189 | 4.67508 | 17962 ft | 414 kts | 209° |
| 2026-05-04 13:43 | 42.89669 | 4.65603 | 17977 ft | 414 kts | 210° |
| 2026-05-04 13:44 | 42.87148 | 4.63701 | 17975 ft | 414 kts | 210° |
| 2026-05-04 13:44 | 42.84621 | 4.61795 | 17970 ft | 415 kts | 210° |
| 2026-05-04 13:44 | 42.82100 | 4.59892 | 17971 ft | 415 kts | 210° |
| 2026-05-04 13:44 | 42.79572 | 4.57981 | 17953 ft | 415 kts | 210° |
| 2026-05-04 13:45 | 42.77070 | 4.56091 | 17446 ft | 409 kts | 210° |
| 2026-05-04 13:45 | 42.74591 | 4.54219 | 16691 ft | 405 kts | 210° |
| 2026-05-04 13:45 | 42.72136 | 4.52372 | 15980 ft | 401 kts | 209° |
| 2026-05-04 13:45 | 42.69707 | 4.50555 | 15305 ft | 397 kts | 209° |
| 2026-05-04 13:46 | 42.67296 | 4.48754 | 14644 ft | 393 kts | 209° |
| 2026-05-04 13:46 | 42.64911 | 4.46970 | 14006 ft | 390 kts | 209° |
| 2026-05-04 13:46 | 42.62549 | 4.45204 | 13348 ft | 386 kts | 209° |
| 2026-05-04 13:46 | 42.60215 | 4.43459 | 12734 ft | 380 kts | 209° |
| 2026-05-04 13:47 | 42.57903 | 4.41730 | 11959 ft | 379 kts | 209° |
| 2026-05-04 13:47 | 42.55603 | 4.40009 | 11240 ft | 376 kts | 209° |
| 2026-05-04 13:47 | 42.53321 | 4.38306 | 10531 ft | 373 kts | 209° |
| 2026-05-04 13:47 | 42.51045 | 4.36611 | 10094 ft | 373 kts | 209° |
| 2026-05-04 13:48 | 42.48772 | 4.34918 | 9939 ft | 374 kts | 209° |
| 2026-05-04 13:48 | 42.46489 | 4.33216 | 9949 ft | 374 kts | 209° |
| 2026-05-04 13:48 | 42.44210 | 4.31518 | 9957 ft | 375 kts | 209° |
| 2026-05-04 13:48 | 42.41922 | 4.29818 | 9949 ft | 375 kts | 209° |
| 2026-05-04 13:49 | 42.39634 | 4.28122 | 9951 ft | 375 kts | 209° |
| 2026-05-04 13:49 | 42.37350 | 4.26426 | 9952 ft | 375 kts | 209° |
| 2026-05-04 13:49 | 42.35071 | 4.24736 | 9948 ft | 375 kts | 208° |
| 2026-05-04 13:49 | 42.32777 | 4.23037 | 9949 ft | 375 kts | 209° |
| 2026-05-04 13:50 | 42.30459 | 4.21322 | 9951 ft | 375 kts | 208° |
| 2026-05-04 13:50 | 42.28164 | 4.19624 | 10132 ft | 376 kts | 209° |
| 2026-05-04 13:50 | 42.25894 | 4.17947 | 10370 ft | 377 kts | 209° |
| 2026-05-04 13:50 | 42.23588 | 4.16245 | 10607 ft | 378 kts | 208° |
| 2026-05-04 13:51 | 42.21275 | 4.14540 | 10838 ft | 380 kts | 209° |
| 2026-05-04 13:51 | 42.18952 | 4.12831 | 10926 ft | 380 kts | 208° |
| 2026-05-04 13:51 | 42.16626 | 4.11122 | 10944 ft | 380 kts | 208° |
| 2026-05-04 13:51 | 42.14306 | 4.09416 | 10940 ft | 380 kts | 208° |
| 2026-05-04 13:52 | 42.09664 | 4.06004 | 10946 ft | 380 kts | 208° |
| 2026-05-04 13:52 | 42.07349 | 4.04303 | 10947 ft | 380 kts | 208° |
| 2026-05-04 13:52 | 42.05026 | 4.02597 | 10945 ft | 380 kts | 208° |
| 2026-05-04 13:53 | 42.02707 | 4.00898 | 10944 ft | 379 kts | 208° |
| 2026-05-04 13:53 | 42.00386 | 3.99203 | 10942 ft | 380 kts | 208° |
| 2026-05-04 13:53 | 41.98059 | 3.97503 | 10943 ft | 380 kts | 208° |
| 2026-05-04 13:54 | 41.93401 | 3.94168 | 10937 ft | 380 kts | 204° |
| 2026-05-04 13:54 | 41.90908 | 3.93032 | 10835 ft | 377 kts | 194° |
| 2026-05-04 13:54 | 41.85746 | 3.91791 | 10432 ft | 377 kts | 191° |
| 2026-05-04 13:55 | 41.83155 | 3.91203 | 10440 ft | 378 kts | 191° |
| 2026-05-04 13:55 | 41.77966 | 3.90027 | 10442 ft | 378 kts | 191° |
| 2026-05-04 13:55 | 41.75374 | 3.89431 | 10436 ft | 378 kts | 191° |
| 2026-05-04 13:56 | 41.72801 | 3.88840 | 10288 ft | 369 kts | 191° |
| 2026-05-04 13:56 | 41.70320 | 3.88271 | 10062 ft | 353 kts | 191° |
| 2026-05-04 13:56 | 41.65688 | 3.87208 | 9935 ft | 319 kts | 191° |
| 2026-05-04 13:57 | 41.63570 | 3.86723 | 9941 ft | 300 kts | 191° |
| 2026-05-04 13:57 | 41.61568 | 3.86264 | 9942 ft | 283 kts | 191° |
| 2026-05-04 13:58 | 41.55915 | 3.84963 | 9937 ft | 272 kts | 191° |
| 2026-05-04 13:58 | 41.52185 | 3.84105 | 9939 ft | 272 kts | 191° |
| 2026-05-04 13:58 | 41.50316 | 3.83676 | 9943 ft | 272 kts | 191° |
| 2026-05-04 13:59 | 41.48452 | 3.83247 | 9947 ft | 272 kts | 191° |
| 2026-05-04 13:59 | 41.46586 | 3.82816 | 9942 ft | 272 kts | 191° |
| 2026-05-04 13:59 | 41.42858 | 3.81957 | 9944 ft | 272 kts | 191° |
| 2026-05-04 14:00 | 41.40994 | 3.81531 | 9939 ft | 272 kts | 191° |
| 2026-05-04 14:00 | 41.37265 | 3.80685 | 9945 ft | 272 kts | 191° |
| 2026-05-04 14:00 | 41.35399 | 3.80262 | 9933 ft | 271 kts | 191° |
| 2026-05-04 14:01 | 41.33540 | 3.79838 | 9944 ft | 272 kts | 191° |
| 2026-05-04 14:01 | 41.32305 | 3.79556 | 9946 ft | 272 kts | 191° |
| 2026-05-04 14:01 | 41.28580 | 3.78702 | 9945 ft | 272 kts | 191° |
| 2026-05-04 14:02 | 41.26714 | 3.78276 | 9945 ft | 272 kts | 191° |
| 2026-05-04 14:02 | 41.24849 | 3.77853 | 9945 ft | 272 kts | 191° |
| 2026-05-04 14:02 | 41.22983 | 3.77433 | 9945 ft | 272 kts | 191° |
| 2026-05-04 14:02 | 41.21118 | 3.77012 | 9943 ft | 272 kts | 191° |
| 2026-05-04 14:03 | 41.19252 | 3.76589 | 9936 ft | 272 kts | 191° |
| 2026-05-04 14:03 | 41.17387 | 3.76167 | 9944 ft | 272 kts | 191° |
| 2026-05-04 14:03 | 41.15536 | 3.75675 | 9943 ft | 271 kts | 196° |
| 2026-05-04 14:03 | 41.13747 | 3.74892 | 9943 ft | 271 kts | 202° |
| 2026-05-04 14:04 | 41.10240 | 3.73070 | 9949 ft | 271 kts | 202° |
| 2026-05-04 14:04 | 41.08477 | 3.72163 | 9941 ft | 271 kts | 201° |
| 2026-05-04 14:04 | 41.06724 | 3.71260 | 9933 ft | 271 kts | 202° |
| 2026-05-04 14:05 | 41.03201 | 3.69440 | 9950 ft | 282 kts | 202° |
| 2026-05-04 14:05 | 41.01259 | 3.68441 | 9952 ft | 316 kts | 201° |
| 2026-05-04 14:05 | 40.99107 | 3.67335 | 9944 ft | 347 kts | 201° |
| 2026-05-04 14:06 | 40.96775 | 3.66140 | 9949 ft | 372 kts | 201° |
| 2026-05-04 14:06 | 40.94319 | 3.64882 | 9945 ft | 382 kts | 201° |
| 2026-05-04 14:06 | 40.91827 | 3.63605 | 9942 ft | 385 kts | 201° |
| 2026-05-04 14:06 | 40.89330 | 3.62326 | 9945 ft | 385 kts | 201° |
| 2026-05-04 14:07 | 40.86830 | 3.61046 | 9946 ft | 385 kts | 201° |
| 2026-05-04 14:07 | 40.84330 | 3.59767 | 9947 ft | 385 kts | 201° |
| 2026-05-04 14:07 | 40.81832 | 3.58488 | 9948 ft | 386 kts | 201° |
| 2026-05-04 14:07 | 40.79327 | 3.57207 | 9942 ft | 386 kts | 201° |
| 2026-05-04 14:08 | 40.76826 | 3.55928 | 9941 ft | 386 kts | 201° |
| 2026-05-04 14:08 | 40.74321 | 3.54649 | 9947 ft | 385 kts | 201° |
| 2026-05-04 14:08 | 40.71822 | 3.53377 | 9943 ft | 386 kts | 201° |
| 2026-05-04 14:08 | 40.69317 | 3.52103 | 9945 ft | 385 kts | 201° |
| 2026-05-04 14:09 | 40.64317 | 3.49553 | 9948 ft | 386 kts | 201° |
| 2026-05-04 14:09 | 40.61817 | 3.48279 | 9941 ft | 386 kts | 201° |
| 2026-05-04 14:10 | 40.56806 | 3.45740 | 9946 ft | 386 kts | 201° |
| 2026-05-04 14:10 | 40.54301 | 3.44476 | 9944 ft | 385 kts | 201° |
| 2026-05-04 14:10 | 40.51805 | 3.43214 | 9938 ft | 385 kts | 201° |
| 2026-05-04 14:10 | 40.49297 | 3.41943 | 9939 ft | 385 kts | 202° |
| 2026-05-04 14:11 | 40.46800 | 3.40680 | 9946 ft | 385 kts | 201° |
| 2026-05-04 14:11 | 40.41581 | 3.39370 | 9327 ft | 380 kts | 182° |
| 2026-05-04 14:11 | 40.38945 | 3.39501 | 8479 ft | 377 kts | 179° |
| 2026-05-04 14:12 | 40.36336 | 3.39672 | 7638 ft | 374 kts | 179° |
| 2026-05-04 14:12 | 40.33750 | 3.39829 | 6832 ft | 370 kts | 179° |
| 2026-05-04 14:12 | 40.28637 | 3.40124 | 5281 ft | 366 kts | 179° |
| 2026-05-04 14:13 | 40.26094 | 3.40266 | 5044 ft | 367 kts | 179° |
| 2026-05-04 14:13 | 40.23579 | 3.40404 | 4952 ft | 350 kts | 179° |
| 2026-05-04 14:13 | 40.21289 | 3.40540 | 4972 ft | 310 kts | 179° |
| 2026-05-04 14:13 | 40.19210 | 3.40666 | 4975 ft | 289 kts | 180° |
| 2026-05-04 14:14 | 40.17272 | 3.40779 | 4973 ft | 269 kts | 180° |
| 2026-05-04 14:14 | 40.13621 | 3.40974 | 4975 ft | 260 kts | 180° |
| 2026-05-04 14:14 | 40.11812 | 3.41073 | 4978 ft | 260 kts | 180° |
| 2026-05-04 14:15 | 40.08189 | 3.41270 | 4979 ft | 260 kts | 180° |
| 2026-05-04 14:15 | 40.04570 | 3.41472 | 4975 ft | 261 kts | 180° |
| 2026-05-04 14:16 | 40.00892 | 3.41681 | 4978 ft | 269 kts | 180° |
| 2026-05-04 14:16 | 39.99037 | 3.41785 | 4975 ft | 263 kts | 180° |
| 2026-05-04 14:17 | 39.95404 | 3.41989 | 4978 ft | 260 kts | 180° |
| 2026-05-04 14:17 | 39.93593 | 3.42089 | 4977 ft | 260 kts | 180° |
| 2026-05-04 14:17 | 39.89969 | 3.42295 | 4980 ft | 260 kts | 181° |
| 2026-05-04 14:18 | 39.88166 | 3.42398 | 4985 ft | 260 kts | 181° |
| 2026-05-04 14:18 | 39.84551 | 3.42601 | 4985 ft | 259 kts | 181° |
| 2026-05-04 14:19 | 39.80939 | 3.42804 | 4985 ft | 260 kts | 181° |
| 2026-05-04 14:19 | 39.79135 | 3.42908 | 4985 ft | 259 kts | 181° |
| 2026-05-04 14:19 | 39.77335 | 3.43010 | 4985 ft | 258 kts | 181° |
| 2026-05-04 14:19 | 39.75562 | 3.42914 | 4707 ft | 253 kts | 193° |
| 2026-05-04 14:20 | 39.73915 | 3.42213 | 4483 ft | 250 kts | 208° |
| 2026-05-04 14:20 | 39.72482 | 3.41007 | 4477 ft | 248 kts | 221° |
| 2026-05-04 14:20 | 39.71316 | 3.39368 | 4489 ft | 248 kts | 235° |
| 2026-05-04 14:21 | 39.70101 | 3.35177 | 4484 ft | 251 kts | 263° |
| 2026-05-04 14:21 | 39.70107 | 3.32933 | 4484 ft | 253 kts | 270° |
| 2026-05-04 14:21 | 39.70184 | 3.30616 | 4485 ft | 253 kts | 270° |
| 2026-05-04 14:21 | 39.70255 | 3.28372 | 4483 ft | 248 kts | 270° |
| 2026-05-04 14:22 | 39.70326 | 3.26201 | 4486 ft | 239 kts | 269° |
| 2026-05-04 14:22 | 39.70392 | 3.24103 | 4485 ft | 226 kts | 269° |
| 2026-05-04 14:22 | 39.70455 | 3.22083 | 4484 ft | 222 kts | 269° |
| 2026-05-04 14:22 | 39.70516 | 3.20083 | 4483 ft | 222 kts | 269° |
| 2026-05-04 14:23 | 39.70635 | 3.16063 | 4485 ft | 223 kts | 269° |
| 2026-05-04 14:23 | 39.70696 | 3.14058 | 4484 ft | 222 kts | 269° |
| 2026-05-04 14:23 | 39.70759 | 3.12053 | 4490 ft | 222 kts | 269° |
| 2026-05-04 14:24 | 39.70750 | 3.10055 | 4491 ft | 221 kts | 260° |
| 2026-05-04 14:24 | 39.70407 | 3.08128 | 4491 ft | 219 kts | 248° |
| 2026-05-04 14:24 | 39.69739 | 3.06351 | 4495 ft | 221 kts | 237° |
| 2026-05-04 14:24 | 39.68927 | 3.04640 | 4494 ft | 224 kts | 237° |
| 2026-05-04 14:25 | 39.68116 | 3.02917 | 4492 ft | 223 kts | 238° |
| 2026-05-04 14:25 | 39.66520 | 2.99507 | 4098 ft | 221 kts | 238° |
| 2026-05-04 14:25 | 39.65729 | 2.97821 | 3823 ft | 217 kts | 237° |
| 2026-05-04 14:26 | 39.64951 | 2.96161 | 3538 ft | 213 kts | 237° |
| 2026-05-04 14:26 | 39.64189 | 2.94537 | 3267 ft | 210 kts | 238° |
| 2026-05-04 14:26 | 39.63429 | 2.92920 | 2980 ft | 208 kts | 238° |
| 2026-05-04 14:26 | 39.62678 | 2.91322 | 2720 ft | 207 kts | 237° |
| 2026-05-04 14:27 | 39.61924 | 2.89717 | 2442 ft | 205 kts | 238° |
| 2026-05-04 14:27 | 39.61181 | 2.88137 | 2166 ft | 205 kts | 238° |
| 2026-05-04 14:27 | 39.60456 | 2.86597 | 1903 ft | 201 kts | 239° |
| 2026-05-04 14:27 | 39.59734 | 2.85064 | 1647 ft | 198 kts | 238° |
| 2026-05-04 14:28 | 39.59009 | 2.83523 | 1375 ft | 196 kts | 237° |
| 2026-05-04 14:28 | 39.58309 | 2.82038 | 1107 ft | 189 kts | 238° |
| 2026-05-04 14:28 | 39.57659 | 2.80658 | 878 ft | 175 kts | 238° |
| 2026-05-04 14:28 | 39.57039 | 2.79343 | 618 ft | 163 kts | 237° |
| 2026-05-04 14:29 | 39.55962 | 2.77062 | 227 ft | 136 kts | 236° |
| 2026-05-04 14:29 | 39.55124 | 2.75310 | 27 ft | 65 kts | 239° |
| 2026-05-04 14:30 | 39.54947 | 2.74911 | 27 ft | 39 kts | 242° |
| 2026-05-04 14:30 | 39.54838 | 2.74627 | 27 ft | 32 kts | 250° |
| 2026-05-04 14:30 | 39.54817 | 2.74157 | 29 ft | 17 kts | 300° |
| 2026-05-04 14:31 | 39.54911 | 2.74059 | 28 ft | 18 kts | 333° |
| 2026-05-04 14:31 | 39.54901 | 2.73840 | 29 ft | 12 kts | 248° |
| 2026-05-04 14:32 | 39.54889 | 2.73801 | 29 ft | 0 kts | 248° |